Port Hueneme, California
Current Conditions -  °F | °C
As of 4:51 AM on Thursday 30 Oct 2014 (Local Time) from KOXR Reporting Station
Clear Clear  
Wind Chill: 57°   Ceiling: Unl
Heat Index: 57°   Visibility: 10mi
Dew Point: 43°   Wind: 6mph
Humidity: 59%   Direction: 60°ENE
Pressure: 29.97"   Gusts: NA
Location:  34.15°N, 119.19°W
Report Text: KOXR 301151Z AUTO 06005KT 10SM CLR 14/06 A2997 RMK AO2 SLP146 T01390061 10178 20133 58004
Loading
Personal Weather Stations






























Interactive Weather Map
Tropical Storm Tracking
New forecast layout! Learn more

10-Day Weather Forecast

Advertisements
Track Severe Weather on mobile